Time;durP1;ratioP1;P1;durP2;ratioP2;P2;SDS_P1;SDS_P2;PMS_P1;PMS_P2;Temp;Humidity;BMP_temperature;BMP_pressure;BME280_temperature;BME280_humidity;BME280_pressure;Samples;Min_cycle;Max_cycle;Signal;HPM_P1;HPM_P2
2021/10/15 00:01:24;;;;;;;4.50;2.92;;;11.80;68.30;;;;;;5071458;28;20013;-77
2021/10/15 00:03:50;;;;;;;5.57;3.80;;;11.80;68.40;;;;;;5071740;28;20059;-78
2021/10/15 00:06:16;;;;;;;5.20;3.53;;;11.90;68.70;;;;;;5072044;28;20437;-78
2021/10/15 00:08:41;;;;;;;6.28;3.85;;;11.80;68.40;;;;;;5071140;28;20043;-77
2021/10/15 00:11:07;;;;;;;6.38;3.70;;;11.80;68.50;;;;;;5070376;28;20028;-78
2021/10/15 00:13:33;;;;;;;4.25;3.28;;;11.70;68.40;;;;;;5070875;28;20029;-78
2021/10/15 00:15:58;;;;;;;5.60;3.70;;;11.70;69.00;;;;;;5052932;28;20036;-78
2021/10/15 00:18:24;;;;;;;6.03;3.42;;;11.70;68.80;;;;;;5071408;28;20474;-78
2021/10/15 00:20:50;;;;;;;4.68;3.42;;;11.70;68.60;;;;;;5076078;28;20028;-77
2021/10/15 00:23:15;;;;;;;6.22;3.72;;;11.80;69.40;;;;;;5069834;28;20037;-78
2021/10/15 00:25:41;;;;;;;5.22;3.53;;;11.70;68.60;;;;;;5060577;28;20020;-78
2021/10/15 00:28:07;;;;;;;5.63;3.55;;;11.70;68.90;;;;;;5071673;28;20405;-79
2021/10/15 00:30:32;;;;;;;6.68;3.65;;;11.70;69.10;;;;;;5071600;28;20367;-78
2021/10/15 00:32:58;;;;;;;5.43;3.33;;;11.60;68.90;;;;;;5059228;28;20032;-79
2021/10/15 00:35:24;;;;;;;5.30;3.58;;;11.60;69.00;;;;;;5066917;28;20043;-79
2021/10/15 00:37:50;;;;;;;5.68;3.50;;;11.60;69.90;;;;;;5052708;28;20020;-78
2021/10/15 00:40:17;;;;;;;6.43;3.40;;;11.60;69.20;;;;;;5071270;28;20075;-79
2021/10/15 00:42:43;;;;;;;5.65;3.50;;;11.50;68.90;;;;;;5071421;28;20100;-79
2021/10/15 00:45:09;;;;;;;6.28;3.60;;;11.50;69.20;;;;;;5058438;28;20119;-79
2021/10/15 00:47:34;;;;;;;5.35;3.55;;;11.50;69.00;;;;;;5068194;28;20028;-78
2021/10/15 00:50:00;;;;;;;5.82;3.55;;;11.50;69.30;;;;;;5067099;28;20094;-78
2021/10/15 00:52:28;;;;;;;5.63;3.80;;;11.50;69.20;;;;;;5058415;28;20082;-78
2021/10/15 00:54:54;;;;;;;7.03;4.15;;;11.40;69.40;;;;;;5055732;28;20040;-77
2021/10/15 00:57:20;;;;;;;5.60;3.83;;;11.40;69.60;;;;;;5069906;28;20020;-77
2021/10/15 00:59:46;;;;;;;5.93;3.42;;;11.40;69.60;;;;;;5071723;28;20214;-77
2021/10/15 01:02:11;;;;;;;7.68;4.13;;;11.30;69.70;;;;;;5075143;28;20052;-77
2021/10/15 01:04:38;;;;;;;6.80;3.83;;;11.30;69.50;;;;;;5070400;28;20028;-77
2021/10/15 01:07:04;;;;;;;5.53;3.67;;;11.30;70.00;;;;;;5055192;28;20067;-77
2021/10/15 01:09:35;;;;;;;6.55;4.18;;;11.30;69.90;;;;;;5071525;28;20111;-77
2021/10/15 01:12:02;;;;;;;6.78;4.22;;;11.30;69.70;;;;;;5059046;28;20022;-78
2021/10/15 01:14:29;;;;;;;8.20;4.65;;;11.30;69.80;;;;;;5067099;28;20078;-77
2021/10/15 01:16:55;;;;;;;6.13;4.43;;;11.20;69.80;;;;;;5049762;28;20547;-78
2021/10/15 01:19:21;;;;;;;6.60;4.22;;;11.20;70.20;;;;;;5058389;28;20028;-77
2021/10/15 01:21:47;;;;;;;8.57;4.80;;;11.20;70.20;;;;;;5070389;28;20477;-78
2021/10/15 01:24:14;;;;;;;8.63;4.82;;;11.20;69.90;;;;;;5071734;28;20054;-77
2021/10/15 01:26:41;;;;;;;6.20;4.50;;;11.20;70.30;;;;;;5070588;28;20039;-78
2021/10/15 01:29:06;;;;;;;9.00;4.60;;;11.20;70.80;;;;;;5050996;28;20029;-77
2021/10/15 01:31:32;;;;;;;6.80;4.90;;;11.20;70.60;;;;;;5059386;28;20027;-77
2021/10/15 01:33:59;;;;;;;6.22;4.75;;;11.20;70.30;;;;;;5054810;28;20063;-78
2021/10/15 01:36:26;;;;;;;8.57;4.80;;;11.20;70.20;;;;;;5055355;28;20043;-77
2021/10/15 01:38:51;;;;;;;6.88;4.88;;;11.20;70.70;;;;;;5070205;28;20035;-77
2021/10/15 01:41:17;;;;;;;9.30;5.15;;;11.20;70.50;;;;;;5070813;28;20032;-78
2021/10/15 01:43:43;;;;;;;9.15;5.28;;;11.20;70.40;;;;;;5075311;28;20024;-77
2021/10/15 01:46:08;;;;;;;8.27;4.82;;;11.10;70.00;;;;;;5058368;28;20036;-77
2021/10/15 01:48:34;;;;;;;7.60;5.00;;;11.20;70.70;;;;;;5070720;28;20024;-78
2021/10/15 01:51:00;;;;;;;7.90;5.03;;;11.10;70.60;;;;;;5061886;28;20021;-78
2021/10/15 01:53:26;;;;;;;8.05;4.72;;;11.10;70.70;;;;;;5069880;28;20020;-77
2021/10/15 01:55:52;;;;;;;6.60;4.82;;;11.20;70.70;;;;;;5073978;28;20040;-77
2021/10/15 01:58:18;;;;;;;8.00;5.00;;;11.10;70.90;;;;;;5074078;28;20035;-78
2021/10/15 02:00:44;;;;;;;7.18;4.25;;;11.10;70.80;;;;;;5073981;28;20027;-77
2021/10/15 02:03:10;;;;;;;8.15;4.57;;;11.00;71.20;;;;;;5074504;28;20093;-78
2021/10/15 02:05:36;;;;;;;6.47;4.72;;;11.00;71.20;;;;;;5073291;28;20489;-77
2021/10/15 02:08:02;;;;;;;7.50;5.00;;;11.00;71.20;;;;;;5074212;28;20028;-77
2021/10/15 02:10:27;;;;;;;7.25;4.75;;;11.00;71.00;;;;;;5073941;28;20074;-77
2021/10/15 02:12:53;;;;;;;8.35;5.05;;;11.00;71.00;;;;;;5073612;28;20035;-78
2021/10/15 02:15:19;;;;;;;7.05;4.95;;;10.90;71.10;;;;;;5059777;28;20417;-77
2021/10/15 02:17:45;;;;;;;8.23;5.30;;;11.00;71.50;;;;;;5070779;28;20029;-78
2021/10/15 02:20:13;;;;;;;8.00;5.30;;;10.90;71.40;;;;;;5073219;28;20032;-77
2021/10/15 02:22:41;;;;;;;8.68;5.00;;;10.90;71.30;;;;;;5054491;28;20024;-78
2021/10/15 02:25:08;;;;;;;8.70;5.15;;;10.90;71.40;;;;;;5059098;28;20580;-78
2021/10/15 02:27:34;;;;;;;8.00;4.78;;;10.90;71.40;;;;;;5075848;28;20021;-78
2021/10/15 02:29:59;;;;;;;8.18;5.18;;;10.90;71.60;;;;;;5074900;28;20472;-77
2021/10/15 02:32:25;;;;;;;6.60;4.85;;;10.90;71.60;;;;;;5073801;28;20029;-79
2021/10/15 02:34:51;;;;;;;7.85;5.18;;;10.90;71.50;;;;;;5055232;28;20040;-79
2021/10/15 02:37:16;;;;;;;7.88;5.10;;;10.90;71.40;;;;;;5073206;28;20028;-77
2021/10/15 02:39:42;;;;;;;6.30;5.07;;;10.90;71.40;;;;;;5057517;28;20118;-79
2021/10/15 02:42:08;;;;;;;8.10;5.10;;;10.90;71.70;;;;;;5051679;28;20411;-78
2021/10/15 02:44:34;;;;;;;8.80;5.13;;;10.90;71.80;;;;;;5054983;28;20021;-78
2021/10/15 02:47:00;;;;;;;7.03;4.97;;;10.90;71.90;;;;;;5072990;28;20412;-78
2021/10/15 02:49:25;;;;;;;9.35;5.05;;;10.90;71.90;;;;;;5072654;28;20024;-77
2021/10/15 02:51:51;;;;;;;8.23;4.88;;;10.90;71.90;;;;;;5073105;28;20495;-78
2021/10/15 02:54:17;;;;;;;7.20;5.28;;;10.90;71.60;;;;;;5069559;28;20024;-78
2021/10/15 02:56:43;;;;;;;7.32;5.15;;;10.90;71.70;;;;;;5071835;28;20028;-78
2021/10/15 02:59:09;;;;;;;8.05;5.22;;;10.90;71.90;;;;;;5049854;28;20032;-78
2021/10/15 03:01:35;;;;;;;9.05;5.75;;;10.90;71.90;;;;;;5065298;28;20055;-77
2021/10/15 03:04:00;;;;;;;7.15;4.75;;;10.80;72.10;;;;;;5072493;28;20374;-77
2021/10/15 03:06:26;;;;;;;7.43;4.85;;;10.80;72.10;;;;;;5057575;28;20092;-77
2021/10/15 03:08:51;;;;;;;6.78;4.43;;;10.90;72.50;;;;;;5060970;28;20500;-77
2021/10/15 03:11:17;;;;;;;7.00;4.90;;;10.80;72.50;;;;;;5070732;28;20412;-77
2021/10/15 03:13:43;;;;;;;7.20;4.47;;;10.80;72.40;;;;;;5072478;28;20087;-77
2021/10/15 03:16:09;;;;;;;7.53;4.80;;;10.80;72.20;;;;;;5072461;28;20381;-77
2021/10/15 03:18:34;;;;;;;8.57;5.28;;;10.80;72.30;;;;;;5072448;28;20024;-77
2021/10/15 03:21:00;;;;;;;6.60;4.72;;;10.80;72.50;;;;;;5071680;28;20531;-77
2021/10/15 03:23:26;;;;;;;9.45;5.45;;;10.90;72.60;;;;;;5064757;28;20033;-78
2021/10/15 03:25:51;;;;;;;8.90;5.38;;;10.90;72.30;;;;;;5063962;28;20042;-77
2021/10/15 03:28:17;;;;;;;8.32;5.38;;;10.90;72.40;;;;;;5072342;28;20033;-77
2021/10/15 03:30:43;;;;;;;7.15;5.25;;;10.80;72.40;;;;;;5038371;28;20120;-77
2021/10/15 03:33:08;;;;;;;8.30;4.90;;;10.80;72.40;;;;;;5052493;28;20450;-77
2021/10/15 03:35:34;;;;;;;7.82;5.18;;;10.80;72.80;;;;;;5071636;28;20064;-77
2021/10/15 03:37:59;;;;;;;6.80;5.18;;;10.90;72.70;;;;;;5071913;28;20103;-77
2021/10/15 03:40:25;;;;;;;6.88;4.68;;;10.90;72.80;;;;;;5071871;28;20091;-77
2021/10/15 03:42:51;;;;;;;9.82;5.88;;;10.90;72.60;;;;;;5075835;28;20051;-78
2021/10/15 03:45:16;;;;;;;9.18;5.82;;;10.90;72.90;;;;;;5075233;28;20397;-77
2021/10/15 03:47:42;;;;;;;9.70;5.28;;;10.90;72.90;;;;;;5080352;28;20499;-77
2021/10/15 03:50:09;;;;;;;7.18;5.20;;;10.90;72.80;;;;;;5078155;28;20367;-78
2021/10/15 03:52:35;;;;;;;8.70;5.63;;;10.90;73.00;;;;;;5072356;28;20020;-76
2021/10/15 03:55:02;;;;;;;9.70;5.95;;;10.90;72.80;;;;;;5071566;28;20098;-77
2021/10/15 03:57:29;;;;;;;8.18;5.47;;;10.90;73.00;;;;;;5072797;28;20024;-77
2021/10/15 03:59:55;;;;;;;7.45;5.10;;;10.90;73.00;;;;;;5060458;28;20033;-76
2021/10/15 04:02:21;;;;;;;9.20;5.50;;;10.90;73.00;;;;;;5066972;28;20024;-77
2021/10/15 04:04:46;;;;;;;9.65;5.65;;;11.00;73.10;;;;;;5071921;28;20036;-77
2021/10/15 04:07:12;;;;;;;6.15;5.03;;;11.00;73.20;;;;;;5071964;28;20021;-76
2021/10/15 04:09:37;;;;;;;7.50;5.20;;;11.00;73.20;;;;;;5038460;28;20374;-76
2021/10/15 04:12:03;;;;;;;7.38;5.50;;;11.00;73.00;;;;;;5072851;28;20029;-77
2021/10/15 04:14:29;;;;;;;8.93;5.45;;;10.90;72.90;;;;;;5073851;28;20036;-77
2021/10/15 04:16:54;;;;;;;7.00;5.05;;;11.00;73.40;;;;;;5072968;28;20489;-77
2021/10/15 04:19:20;;;;;;;7.00;5.03;;;11.00;73.40;;;;;;5059417;28;20056;-77
2021/10/15 04:21:46;;;;;;;7.95;4.95;;;11.00;73.70;;;;;;5071472;28;20507;-76
2021/10/15 04:24:11;;;;;;;7.00;4.90;;;11.00;73.40;;;;;;5072336;28;20039;-77
2021/10/15 04:26:37;;;;;;;11.15;5.50;;;11.00;73.20;;;;;;5071565;28;20043;-77
2021/10/15 04:29:03;;;;;;;7.55;5.15;;;11.00;73.10;;;;;;5071709;28;20023;-77
2021/10/15 04:31:29;;;;;;;9.00;5.30;;;10.90;73.10;;;;;;5052991;28;20032;-76
2021/10/15 04:33:54;;;;;;;7.78;5.40;;;10.90;73.30;;;;;;5055164;28;20027;-76
2021/10/15 04:36:20;;;;;;;6.97;5.20;;;10.90;73.60;;;;;;5071906;28;20107;-75
2021/10/15 04:38:46;;;;;;;7.63;4.93;;;10.90;73.40;;;;;;5071182;28;20047;-76
2021/10/15 04:41:12;;;;;;;6.45;4.78;;;10.90;73.40;;;;;;5071153;28;20047;-76
2021/10/15 04:43:38;;;;;;;8.10;5.18;;;10.90;73.80;;;;;;5059437;28;20078;-77
2021/10/15 04:46:04;;;;;;;7.93;5.03;;;10.80;73.40;;;;;;5056584;28;20036;-76
2021/10/15 04:48:29;;;;;;;6.60;4.72;;;10.90;73.50;;;;;;5055868;28;20025;-76
2021/10/15 04:50:55;;;;;;;7.78;5.35;;;10.80;73.70;;;;;;5071035;28;20048;-76
2021/10/15 04:53:21;;;;;;;8.43;5.13;;;10.80;73.70;;;;;;5071083;28;20036;-76
2021/10/15 04:55:47;;;;;;;6.18;4.47;;;10.80;73.90;;;;;;5068603;28;20123;-76
2021/10/15 04:58:12;;;;;;;8.00;4.88;;;10.80;73.70;;;;;;5056905;28;20029;-76
2021/10/15 05:00:38;;;;;;;6.60;5.20;;;10.80;74.00;;;;;;5071425;28;20443;-76
2021/10/15 05:03:04;;;;;;;6.70;4.70;;;10.70;73.70;;;;;;5058693;28;20028;-76
2021/10/15 05:05:30;;;;;;;6.85;4.70;;;10.70;73.80;;;;;;5059698;28;20033;-77
2021/10/15 05:07:57;;;;;;;7.57;5.32;;;10.70;73.90;;;;;;5062805;28;20107;-75
2021/10/15 05:10:23;;;;;;;7.60;4.88;;;10.70;74.10;;;;;;5070987;28;20029;-76
2021/10/15 05:12:50;;;;;;;6.95;4.65;;;10.80;74.30;;;;;;5070639;28;20025;-76
2021/10/15 05:15:16;;;;;;;6.82;4.70;;;10.80;74.00;;;;;;5071446;28;20455;-77
2021/10/15 05:17:42;;;;;;;7.10;4.80;;;10.70;74.00;;;;;;5070942;28;20024;-77
2021/10/15 05:20:11;;;;;;;6.50;4.40;;;10.70;74.30;;;;;;5073064;28;20029;-77
2021/10/15 05:22:37;;;;;;;6.55;5.00;;;10.80;74.00;;;;;;5075400;28;20044;-76
2021/10/15 05:25:04;;;;;;;6.78;5.15;;;10.80;74.40;;;;;;5086355;28;20040;-76
2021/10/15 05:27:30;;;;;;;5.95;4.40;;;10.80;73.90;;;;;;5074787;28;20409;-76
2021/10/15 05:29:56;;;;;;;9.65;4.90;;;10.70;73.90;;;;;;5074974;28;20502;-76
2021/10/15 05:32:22;;;;;;;7.95;5.20;;;10.70;73.90;;;;;;5074135;28;20036;-76
2021/10/15 05:34:48;;;;;;;6.43;4.75;;;10.70;74.00;;;;;;5074352;28;20043;-76
2021/10/15 05:37:15;;;;;;;6.53;4.93;;;10.70;73.90;;;;;;5074400;28;20094;-75
2021/10/15 05:39:40;;;;;;;7.82;4.72;;;10.70;75.00;;;;;;5074230;28;20090;-76
2021/10/15 05:42:06;;;;;;;6.05;4.78;;;10.70;74.20;;;;;;5074589;28;20481;-75
2021/10/15 05:44:33;;;;;;;8.07;5.00;;;10.60;74.00;;;;;;5074265;28;20538;-75
2021/10/15 05:47:03;;;;;;;7.50;5.45;;;10.60;74.40;;;;;;5070500;28;20061;-75
2021/10/15 05:49:31;;;;;;;6.72;4.85;;;10.60;74.50;;;;;;5073782;28;20040;-75
2021/10/15 05:52:12;;;;;;;7.22;5.07;;;10.60;74.60;;;;;;5058012;28;20098;-76
2021/10/15 05:57:28;;;;;;;6.22;5.20;;;10.60;73.70;;;;;;5073999;28;20024;-77
2021/10/15 05:59:54;;;;;;;8.80;5.07;;;10.60;74.20;;;;;;5063541;28;20593;-76
2021/10/15 06:02:20;;;;;;;8.27;4.85;;;10.60;74.10;;;;;;5069883;28;20104;-77
2021/10/15 06:15:27;;;;;;;7.95;5.15;;;10.40;73.70;;;;;;5021471;28;20552;-77
2021/10/15 06:17:54;;;;;;;9.02;4.70;;;10.40;74.20;;;;;;5022343;28;20490;-76
2021/10/15 06:20:20;;;;;;;7.80;4.88;;;10.40;74.30;;;;;;5019717;28;20512;-76
2021/10/15 06:22:45;;;;;;;7.10;4.60;;;10.30;74.30;;;;;;5022503;28;20108;-78
2021/10/15 06:25:11;;;;;;;8.23;5.05;;;10.30;74.50;;;;;;5018928;28;20564;-77
2021/10/15 06:27:37;;;;;;;8.15;5.13;;;10.30;74.50;;;;;;5021259;28;20418;-77
2021/10/15 06:30:04;;;;;;;8.25;5.30;;;10.30;74.50;;;;;;5019485;28;20018;-78
2021/10/15 06:32:30;;;;;;;8.85;5.30;;;10.30;74.70;;;;;;5022389;28;20049;-76
2021/10/15 06:34:55;;;;;;;8.00;5.43;;;10.30;74.80;;;;;;5019251;28;20030;-77
2021/10/15 06:37:21;;;;;;;8.93;5.50;;;10.30;74.90;;;;;;5017642;28;20504;-76
2021/10/15 06:39:47;;;;;;;8.55;5.47;;;10.20;74.80;;;;;;5020971;28;20038;-76
2021/10/15 06:42:12;;;;;;;7.95;5.32;;;10.30;74.70;;;;;;5015938;28;20109;-76
2021/10/15 06:44:38;;;;;;;10.68;6.35;;;10.30;74.80;;;;;;5019243;28;20081;-75
2021/10/15 06:47:05;;;;;;;9.90;5.97;;;10.40;74.80;;;;;;5020239;28;20038;-75
2021/10/15 06:49:31;;;;;;;8.18;5.25;;;10.40;74.60;;;;;;5020513;28;20026;-76
2021/10/15 06:51:56;;;;;;;6.60;5.20;;;10.40;74.70;;;;;;5036598;28;20521;-75
2021/10/15 06:54:22;;;;;;;7.95;5.95;;;10.40;75.00;;;;;;5072744;28;20115;-76
2021/10/15 06:56:48;;;;;;;7.10;5.43;;;10.40;75.20;;;;;;5071883;28;20493;-76
2021/10/15 06:59:14;;;;;;;8.60;5.70;;;10.50;75.10;;;;;;5072094;28;20032;-77
2021/10/15 07:01:39;;;;;;;8.57;5.50;;;10.60;75.20;;;;;;5071801;28;20037;-77
2021/10/15 07:04:05;;;;;;;8.93;6.05;;;10.70;75.40;;;;;;5071863;28;20039;-76
2021/10/15 07:06:31;;;;;;;8.68;5.57;;;10.90;75.30;;;;;;5070112;28;20035;-76
2021/10/15 07:08:57;;;;;;;8.20;5.80;;;11.10;75.00;;;;;;5071845;28;20021;-77
2021/10/15 07:11:23;;;;;;;10.55;5.65;;;11.30;74.70;;;;;;5053909;28;20087;-77
2021/10/15 07:13:48;;;;;;;8.48;5.85;;;11.40;74.40;;;;;;5053941;28;20437;-76
2021/10/15 07:16:14;;;;;;;8.40;5.28;;;11.70;74.30;;;;;;5072992;28;20081;-76
2021/10/15 07:18:42;;;;;;;8.27;5.15;;;11.90;73.60;;;;;;5072701;28;20040;-75
2021/10/15 07:21:08;;;;;;;8.93;5.60;;;12.10;73.00;;;;;;5074527;28;20032;-75
2021/10/15 07:23:34;;;;;;;9.38;5.63;;;12.30;72.70;;;;;;5069660;28;20027;-76
2021/10/15 07:26:01;;;;;;;8.00;5.40;;;12.50;72.30;;;;;;5054861;28;20029;-75
2021/10/15 07:28:27;;;;;;;6.75;4.93;;;12.70;71.30;;;;;;5072251;28;20479;-76
2021/10/15 07:30:54;;;;;;;7.85;5.40;;;12.90;71.50;;;;;;5037308;28;20120;-75
2021/10/15 07:33:21;;;;;;;10.73;4.90;;;13.10;71.10;;;;;;5020888;28;21082;-76
2021/10/15 07:35:46;;;;;;;7.65;5.18;;;13.20;70.50;;;;;;4989397;28;20577;-75
2021/10/15 07:38:12;;;;;;;7.32;5.22;;;13.50;69.70;;;;;;5052374;28;20505;-76
2021/10/15 07:40:38;;;;;;;7.43;5.13;;;13.70;69.20;;;;;;5039311;28;20451;-72
2021/10/15 07:43:04;;;;;;;8.93;5.82;;;13.80;68.90;;;;;;5026149;28;20103;-72
2021/10/15 07:45:30;;;;;;;6.45;5.25;;;14.00;68.30;;;;;;5034775;28;21088;-72
2021/10/15 07:47:55;;;;;;;6.78;5.13;;;14.00;67.50;;;;;;5044344;28;20111;-73
2021/10/15 07:50:22;;;;;;;8.23;5.65;;;14.10;67.50;;;;;;5059114;28;20485;-66
2021/10/15 07:52:48;;;;;;;6.45;5.00;;;14.20;67.80;;;;;;5063673;28;20532;-72
2021/10/15 07:55:13;;;;;;;6.75;4.93;;;14.50;68.00;;;;;;5067165;28;20116;-73
2021/10/15 07:57:40;;;;;;;6.55;5.28;;;14.80;67.80;;;;;;5069491;28;20044;-72
2021/10/15 08:00:08;;;;;;;9.75;4.90;;;14.90;66.60;;;;;;5071126;28;20105;-74
2021/10/15 08:02:33;;;;;;;8.30;5.40;;;15.20;67.20;;;;;;5050271;28;20020;-71
2021/10/15 08:04:59;;;;;;;6.45;4.95;;;15.50;66.20;;;;;;5041092;28;20032;-74
2021/10/15 08:07:25;;;;;;;8.95;5.07;;;15.70;65.60;;;;;;5064265;28;20027;-72
2021/10/15 08:09:50;;;;;;;7.45;5.10;;;15.70;64.60;;;;;;5053493;28;20033;-73
2021/10/15 08:12:16;;;;;;;7.63;5.05;;;15.40;64.00;;;;;;5047176;28;20032;-74
2021/10/15 08:14:42;;;;;;;6.53;5.10;;;15.10;63.70;;;;;;5047747;28;20354;-72
2021/10/15 08:17:08;;;;;;;6.82;5.35;;;14.80;64.60;;;;;;5048079;28;20040;-74
2021/10/15 08:19:33;;;;;;;8.50;5.40;;;14.60;65.50;;;;;;5058297;28;20028;-74
2021/10/15 08:21:59;;;;;;;8.18;5.07;;;14.60;66.30;;;;;;5006940;28;20028;-74
2021/10/15 08:24:25;;;;;;;6.97;5.20;;;14.50;66.60;;;;;;5024323;28;20039;-74
2021/10/15 08:26:51;;;;;;;8.52;4.90;;;14.60;67.10;;;;;;5005410;28;20028;-75
2021/10/15 08:29:18;;;;;;;9.70;4.82;;;14.70;67.60;;;;;;5009197;28;20036;-74
2021/10/15 08:31:43;;;;;;;7.82;4.82;;;14.90;67.30;;;;;;5007139;28;20078;-74
2021/10/15 08:34:10;;;;;;;7.63;5.25;;;15.30;67.00;;;;;;5045466;28;20094;-76
2021/10/15 08:36:39;;;;;;;6.28;4.75;;;15.80;66.70;;;;;;5070347;28;20030;-73
2021/10/15 08:39:06;;;;;;;9.07;4.90;;;16.40;66.30;;;;;;5069288;28;20035;-73
2021/10/15 08:41:32;;;;;;;14.50;5.47;;;17.10;64.10;;;;;;5070087;28;20031;-73
2021/10/15 08:43:58;;;;;;;11.98;6.57;;;17.40;61.50;;;;;;5070649;28;20032;-73
2021/10/15 08:46:25;;;;;;;7.65;5.57;;;17.40;59.90;;;;;;5052692;28;20029;-76
2021/10/15 08:48:51;;;;;;;8.38;5.60;;;17.30;59.60;;;;;;5070346;28;20061;-75
2021/10/15 08:51:20;;;;;;;9.57;5.88;;;17.10;60.00;;;;;;5069502;28;20079;-76
2021/10/15 08:53:53;;;;;;;10.10;6.13;;;16.90;60.90;;;;;;5071813;28;20032;-75
2021/10/15 08:56:20;;;;;;;11.05;5.97;;;16.70;60.20;;;;;;5073997;28;20032;-76
2021/10/15 08:58:48;;;;;;;9.23;6.30;;;16.40;61.20;;;;;;5073597;28;20031;-75
2021/10/15 09:01:14;;;;;;;10.43;6.60;;;16.20;61.60;;;;;;5073464;28;20104;-75
2021/10/15 09:03:41;;;;;;;10.23;6.57;;;16.10;62.20;;;;;;5073987;28;20056;-75
2021/10/15 09:06:09;;;;;;;12.52;7.60;;;16.00;62.50;;;;;;5073977;28;20086;-76
2021/10/15 09:08:49;;;;;;;12.93;6.75;;;15.80;63.00;;;;;;5074419;28;20107;-73
2021/10/15 09:11:25;;;;;;;11.93;7.70;;;15.60;63.60;;;;;;5064844;28;20136;-72
2021/10/15 09:13:51;;;;;;;11.18;6.40;;;15.60;64.10;;;;;;5064195;28;20051;-74
2021/10/15 09:16:16;;;;;;;11.88;7.28;;;15.60;64.40;;;;;;5074096;28;20501;-76
2021/10/15 09:18:45;;;;;;;12.38;6.82;;;15.60;65.00;;;;;;5074448;28;20102;-74
2021/10/15 09:21:16;;;;;;;11.85;6.97;;;15.50;65.40;;;;;;5072175;28;20031;-72
2021/10/15 09:23:47;;;;;;;11.30;7.03;;;15.50;65.10;;;;;;5074187;28;20119;-73
2021/10/15 09:26:14;;;;;;;12.52;6.47;;;15.50;65.50;;;;;;5074514;28;20503;-73
2021/10/15 09:28:42;;;;;;;9.98;6.25;;;15.50;65.00;;;;;;5074862;28;20028;-73
2021/10/15 09:31:09;;;;;;;11.57;6.93;;;15.50;65.50;;;;;;5071454;28;20055;-74
2021/10/15 09:33:35;;;;;;;11.68;7.15;;;15.60;66.00;;;;;;5069589;28;20027;-76
2021/10/15 09:36:08;;;;;;;11.55;7.32;;;15.70;67.20;;;;;;5074873;28;20090;-73
2021/10/15 09:38:34;;;;;;;12.30;6.80;;;15.80;65.80;;;;;;5075058;28;20025;-72
2021/10/15 09:40:59;;;;;;;13.80;7.00;;;15.80;66.60;;;;;;5069530;28;20051;-77
2021/10/15 09:43:34;;;;;;;12.35;6.70;;;15.80;65.70;;;;;;5069393;28;20059;-75
2021/10/15 09:46:00;;;;;;;10.95;6.50;;;15.90;65.40;;;;;;5073651;28;20024;-75
2021/10/15 09:48:27;;;;;;;12.93;6.47;;;15.90;65.60;;;;;;5072387;28;20058;-76
2021/10/15 09:51:12;;;;;;;10.30;6.07;;;16.00;65.80;;;;;;5073257;28;20119;-76
2021/10/15 09:53:39;;;;;;;9.65;6.28;;;16.10;65.50;;;;;;5073642;28;20029;-77
2021/10/15 09:56:06;;;;;;;10.23;6.40;;;16.10;65.10;;;;;;5066629;28;20492;-74
2021/10/15 09:58:32;;;;;;;7.22;5.35;;;16.10;65.50;;;;;;5072551;28;20549;-74
2021/10/15 10:00:58;;;;;;;8.65;5.45;;;16.20;65.90;;;;;;5072928;28;20032;-73
2021/10/15 10:03:26;;;;;;;6.75;5.07;;;16.40;65.80;;;;;;5073457;28;20016;-73
2021/10/15 10:05:52;;;;;;;9.05;4.57;;;17.00;66.30;;;;;;5071722;28;20543;-74
2021/10/15 10:08:18;;;;;;;7.47;5.20;;;17.60;64.80;;;;;;5072522;28;20115;-76
2021/10/15 10:10:45;;;;;;;7.05;4.32;;;18.20;64.10;;;;;;5072788;28;20036;-74
2021/10/15 10:13:13;;;;;;;7.22;4.05;;;18.90;62.90;;;;;;5072713;28;20032;-74
2021/10/15 10:15:42;;;;;;;6.78;4.40;;;19.10;58.70;;;;;;5073217;28;20036;-70
2021/10/15 10:18:22;;;;;;;5.72;3.72;;;18.70;58.00;;;;;;5072906;28;20484;-71
2021/10/15 10:21:05;;;;;;;6.40;3.72;;;18.70;59.50;;;;;;5071449;28;20031;-71
2021/10/15 10:23:39;;;;;;;6.30;4.00;;;18.60;59.10;;;;;;5072730;28;20032;-70
2021/10/15 10:26:11;;;;;;;5.47;3.80;;;18.80;59.90;;;;;;5072060;28;20064;-70
2021/10/15 10:28:37;;;;;;;5.33;3.50;;;19.60;60.10;;;;;;5069650;28;20024;-68
2021/10/15 10:31:06;;;;;;;5.78;3.90;;;20.20;58.40;;;;;;5071947;28;20365;-70
2021/10/15 10:34:19;;;;;;;6.22;3.85;;;20.80;58.50;;;;;;5071707;28;20107;-70
2021/10/15 10:37:05;;;;;;;4.90;3.13;;;21.10;56.60;;;;;;5001605;28;20047;-70
2021/10/15 10:39:31;;;;;;;3.67;2.90;;;21.60;57.00;;;;;;4965556;28;20385;-70
2021/10/15 10:42:15;;;;;;;5.00;3.30;;;22.00;53.80;;;;;;4986753;28;20137;-70
2021/10/15 10:44:50;;;;;;;6.35;2.72;;;22.60;53.70;;;;;;4991642;28;20042;-70
2021/10/15 10:47:15;;;;;;;4.50;2.95;;;22.90;54.30;;;;;;4992843;28;20065;-70
2021/10/15 10:50:01;;;;;;;3.88;2.72;;;23.50;53.10;;;;;;4993522;28;20494;-69
2021/10/15 10:52:27;;;;;;;3.15;2.55;;;23.70;52.00;;;;;;4980934;28;20530;-70
2021/10/15 10:54:53;;;;;;;4.88;2.40;;;23.80;49.30;;;;;;4990459;28;20050;-69
2021/10/15 10:57:26;;;;;;;4.85;2.15;;;24.00;49.00;;;;;;4995338;28;20655;-70
2021/10/15 10:59:53;;;;;;;4.03;2.40;;;24.00;49.60;;;;;;4994971;28;20038;-69
2021/10/15 11:02:21;;;;;;;5.05;2.40;;;23.90;47.70;;;;;;4994129;28;20030;-70
2021/10/15 11:04:51;;;;;;;4.07;2.55;;;23.90;50.30;;;;;;4993831;28;20025;-70
2021/10/15 11:07:17;;;;;;;3.80;1.85;;;24.30;49.20;;;;;;4992279;28;20137;-69
2021/10/15 11:09:46;;;;;;;3.97;1.77;;;24.80;47.40;;;;;;4992208;28;20121;-69
2021/10/15 11:12:14;;;;;;;3.80;1.40;;;25.00;47.10;;;;;;5001342;28;20436;-69
2021/10/15 11:15:01;;;;;;;2.17;1.02;;;24.90;45.40;;;;;;5071556;28;20043;-69
2021/10/15 11:17:37;;;;;;;2.92;1.20;;;24.40;46.00;;;;;;5056081;28;20047;-69
2021/10/15 11:20:18;;;;;;;2.80;1.17;;;23.80;45.90;;;;;;5071683;28;20032;-69
2021/10/15 11:22:56;;;;;;;1.63;1.00;;;23.60;46.20;;;;;;5071813;28;20490;-69
2021/10/15 11:25:25;;;;;;;2.40;1.50;;;23.30;44.80;;;;;;5072006;28;20033;-69
2021/10/15 11:27:56;;;;;;;2.15;1.38;;;23.10;45.40;;;;;;5054310;28;20056;-69
2021/10/15 11:30:25;;;;;;;2.63;1.20;;;22.90;45.70;;;;;;5071832;28;20058;-69
2021/10/15 11:32:51;;;;;;;2.63;1.30;;;23.00;46.30;;;;;;5071810;28;20029;-69
2021/10/15 11:35:32;;;;;;;3.78;1.33;;;23.00;44.80;;;;;;5071311;28;20036;-69
2021/10/15 11:38:21;;;;;;;2.65;1.42;;;23.00;45.60;;;;;;5070708;28;20489;-70
2021/10/15 11:40:52;;;;;;;3.10;1.23;;;23.20;47.20;;;;;;5070941;28;20551;-69
2021/10/15 11:43:22;;;;;;;3.85;1.20;;;23.20;45.20;;;;;;5071518;28;20401;-69
2021/10/15 11:45:55;;;;;;;3.65;1.17;;;23.30;44.80;;;;;;5071102;28;20024;-69
2021/10/15 11:48:26;;;;;;;2.08;1.05;;;23.10;43.50;;;;;;5068395;28;20476;-70
2021/10/15 11:50:51;;;;;;;2.17;1.13;;;23.10;44.10;;;;;;5070481;28;20042;-71
2021/10/15 11:53:21;;;;;;;2.65;1.10;;;22.60;42.00;;;;;;5071199;28;20400;-69
2021/10/15 11:55:48;;;;;;;3.42;1.30;;;22.20;43.40;;;;;;5070944;28;20064;-70
2021/10/15 11:58:34;;;;;;;3.15;1.13;;;22.30;44.50;;;;;;5070323;28;20033;-71
2021/10/15 12:01:04;;;;;;;1.80;1.20;;;22.70;46.30;;;;;;5017934;28;20127;-71
2021/10/15 12:03:34;;;;;;;1.92;1.05;;;22.90;43.50;;;;;;5023010;28;20116;-71
2021/10/15 12:06:15;;;;;;;2.08;1.27;;;22.90;44.60;;;;;;5044149;28;20753;-71
2021/10/15 12:08:44;;;;;;;2.58;0.98;;;23.30;45.80;;;;;;5024626;28;20377;-71
2021/10/15 12:11:24;;;;;;;1.55;0.85;;;23.90;44.40;;;;;;5037171;28;20092;-71
2021/10/15 12:13:50;;;;;;;2.10;1.02;;;24.20;44.20;;;;;;5033272;28;20081;-72
2021/10/15 12:16:24;;;;;;;2.22;1.08;;;24.70;42.90;;;;;;5060389;28;20448;-70
2021/10/15 12:19:23;;;;;;;2.20;1.17;;;24.60;40.60;;;;;;5070392;28;24680;-79
2021/10/15 12:21:54;;;;;;;2.00;1.48;;;24.90;43.10;;;;;;5063773;28;20048;-72
2021/10/15 12:24:26;;;;;;;1.70;0.93;;;25.20;41.00;;;;;;5071095;28;20039;-71
2021/10/15 12:27:10;;;;;;;2.08;1.30;;;25.70;40.50;;;;;;5070400;28;20062;-71
2021/10/15 12:29:42;;;;;;;1.30;0.95;;;26.40;41.20;;;;;;5069109;28;20030;-72
2021/10/15 12:32:23;;;;;;;2.33;1.20;;;27.30;39.60;;;;;;5070687;28;20031;-72
2021/10/15 12:35:16;;;;;;;2.53;0.93;;;27.90;37.10;;;;;;5070351;28;20045;-71
2021/10/15 12:37:56;;;;;;;;;;;28.90;39.50;;;;;;5070672;28;20075;-71
2021/10/15 12:40:25;;;;;;;1.92;1.25;;;31.00;40.20;;;;;;5069165;28;20296;-72
2021/10/15 12:43:02;;;;;;;3.30;1.40;;;33.20;30.60;;;;;;5070133;28;20071;-71
2021/10/15 12:45:48;;;;;;;2.05;1.08;;;33.90;28.80;;;;;;5066859;28;20029;-71
2021/10/15 12:48:22;;;;;;;2.25;1.10;;;34.80;29.30;;;;;;5054724;28;20064;-71
2021/10/15 12:51:10;;;;;;;1.52;1.00;;;36.30;27.50;;;;;;5069380;28;20037;-71
2021/10/15 12:53:45;;;;;;;1.35;1.00;;;37.50;26.30;;;;;;5067513;28;20037;-71
2021/10/15 12:56:16;;;;;;;2.80;1.60;;;38.00;22.50;;;;;;5070460;28;20063;-71
2021/10/15 12:58:59;;;;;;;2.53;1.48;;;37.80;22.10;;;;;;5070366;28;20481;-71
2021/10/15 13:01:29;;;;;;;2.72;1.40;;;37.90;23.50;;;;;;5069943;28;20064;-71
2021/10/15 13:03:56;;;;;;;2.30;1.20;;;37.50;21.50;;;;;;5070411;28;20050;-72